Time;durP1;ratioP1;P1;durP2;ratioP2;P2;SDS_P1;SDS_P2;PMS_P1;PMS_P2;Temp;Humidity;BMP_temperature;BMP_pressure;BME280_temperature;BME280_humidity;BME280_pressure;Samples;Min_cycle;Max_cycle;Signal;HPM_P1;HPM_P2
2022/01/15 00:00:05;;;;;;;;;;;5.70;99.90;;;;;;2090086;28;19913;-72
2022/01/15 00:01:05;;;;;;;;;;;5.60;99.90;;;;;;2089178;28;19951;-72
2022/01/15 00:02:06;;;;;;;;;;;5.60;99.90;;;;;;2089845;28;19913;-72
2022/01/15 00:03:07;;;;;;;;;;;5.60;99.90;;;;;;2085054;28;20010;-72
2022/01/15 00:04:08;;;;;;;;;;;5.60;99.90;;;;;;2088234;28;19952;-72
2022/01/15 00:05:09;;;;;;;;;;;5.60;99.90;;;;;;2087869;28;19919;-72
2022/01/15 00:06:09;;;;;;;;;;;5.60;99.90;;;;;;2088715;28;19920;-72
2022/01/15 00:07:09;;;;;;;;;;;5.60;99.90;;;;;;2083006;28;19913;-72
2022/01/15 00:08:10;;;;;;;;;;;5.60;99.90;;;;;;2083203;28;19924;-72
2022/01/15 00:09:10;;;;;;;;;;;5.60;99.90;;;;;;2087412;28;20331;-72
2022/01/15 00:10:11;;;;;;;;;;;5.70;99.90;;;;;;2088462;28;19912;-72
2022/01/15 00:11:11;;;;;;;;;;;5.70;99.90;;;;;;2083359;28;19933;-72
2022/01/15 00:12:12;;;;;;;;;;;5.70;99.90;;;;;;2088529;28;20340;-72
2022/01/15 00:13:22;;;;;;;;;;;5.70;99.90;;;;;;2087799;28;19916;-72
2022/01/15 00:14:27;;;;;;;;;;;5.70;99.90;;;;;;2088417;28;19948;-72
2022/01/15 00:15:35;;;;;;;;;;;5.80;99.90;;;;;;2088720;28;19915;-72
2022/01/15 00:16:46;;;;;;;;;;;5.80;99.90;;;;;;2084567;28;19913;-72
2022/01/15 00:18:41;;;;;;;;;;;5.80;99.90;;;;;;2083732;28;19994;-72
2022/01/15 00:19:09;;;;;;;;;;;5.80;99.90;;;;;;2080659;28;19977;-72
2022/01/15 00:20:10;;;;;;;;;;;5.80;99.90;;;;;;2087238;28;19920;-72
2022/01/15 00:21:11;;;;;;;;;;;5.80;99.90;;;;;;2087838;28;20407;-71
2022/01/15 00:22:13;;;;;;;;;;;5.90;99.90;;;;;;2088410;28;19916;-72
2022/01/15 00:23:13;;;;;;;;;;;5.90;99.90;;;;;;2086701;28;20387;-72
2022/01/15 00:24:15;;;;;;;;;;;5.90;99.90;;;;;;2086030;28;20292;-72
2022/01/15 00:25:16;;;;;;;;;;;5.90;99.90;;;;;;2088420;28;19916;-72
2022/01/15 00:26:17;;;;;;;;;;;5.90;99.90;;;;;;2088946;28;19909;-72
2022/01/15 00:27:17;;;;;;;;;;;5.90;99.90;;;;;;2088475;28;19912;-72
2022/01/15 00:28:18;;;;;;;;;;;5.90;99.90;;;;;;2083344;28;19913;-72
2022/01/15 00:29:18;;;;;;;;;;;5.90;99.90;;;;;;2077086;28;20004;-72
2022/01/15 00:30:19;;;;;;;;;;;5.90;99.90;;;;;;2087965;28;19920;-72
2022/01/15 00:31:20;;;;;;;;;;;5.90;99.90;;;;;;2088282;28;19908;-72
2022/01/15 00:32:20;;;;;;;;;;;5.90;99.90;;;;;;2088674;28;19909;-72
2022/01/15 00:33:21;;;;;;;;;;;5.90;99.90;;;;;;2083049;28;20024;-72
2022/01/15 00:34:21;;;;;;;;;;;5.90;99.90;;;;;;2086275;28;19917;-72
2022/01/15 00:35:23;;;;;;;;;;;5.90;99.90;;;;;;2087751;28;19909;-72
2022/01/15 00:36:24;;;;;;;;;;;5.90;99.90;;;;;;2088462;28;20414;-72
2022/01/15 00:37:24;;;;;;;;;;;5.90;99.90;;;;;;2087863;28;20960;-72
2022/01/15 00:38:25;;;;;;;;;;;6.00;99.90;;;;;;2083728;28;19967;-72
2022/01/15 00:39:27;;;;;;;;;;;6.00;99.90;;;;;;2087826;28;20320;-72
2022/01/15 00:40:27;;;;;;;;;;;6.00;99.90;;;;;;2088140;28;19958;-72
2022/01/15 00:41:27;;;;;;;;;;;6.00;99.90;;;;;;2084266;28;19935;-72
2022/01/15 00:42:29;;;;;;;;;;;6.00;99.90;;;;;;2087269;28;20013;-72
2022/01/15 00:43:29;;;;;;;;;;;6.00;99.90;;;;;;2088676;28;19917;-72
2022/01/15 00:44:30;;;;;;;;;;;6.00;99.90;;;;;;2096246;28;19913;-72
2022/01/15 00:45:33;;;;;;;;;;;6.00;99.90;;;;;;2088226;28;19913;-72
2022/01/15 00:46:33;;;;;;;;;;;6.00;99.90;;;;;;2085256;28;20358;-71
2022/01/15 00:47:34;;;;;;;;;;;6.00;99.90;;;;;;2086960;28;19913;-72
2022/01/15 00:48:34;;;;;;;;;;;6.00;99.90;;;;;;2088587;28;19954;-72
2022/01/15 00:49:35;;;;;;;;;;;5.90;99.90;;;;;;2085826;28;20335;-72
2022/01/15 00:50:35;;;;;;;;;;;5.90;99.90;;;;;;2087231;28;19996;-72
2022/01/15 00:51:36;;;;;;;;;;;5.80;99.90;;;;;;2088405;28;20413;-72
2022/01/15 00:52:37;;;;;;;;;;;5.90;99.90;;;;;;2087919;28;19913;-72
2022/01/15 00:53:37;;;;;;;;;;;5.90;99.90;;;;;;2085544;28;20003;-72
2022/01/15 00:54:38;;;;;;;;;;;5.90;99.90;;;;;;2088825;28;19909;-72
2022/01/15 00:55:38;;;;;;;;;;;5.90;99.90;;;;;;2084653;28;20309;-72
2022/01/15 00:56:39;;;;;;;;;;;5.90;99.90;;;;;;2083559;28;19917;-72
2022/01/15 00:57:39;;;;;;;;;;;5.90;99.90;;;;;;2088054;28;20416;-72
2022/01/15 00:58:40;;;;;;;;;;;5.90;99.90;;;;;;2089120;28;20353;-72
2022/01/15 00:59:40;;;;;;;;;;;5.90;99.90;;;;;;2096181;28;19909;-72
2022/01/15 01:00:41;;;;;;;;;;;5.90;99.90;;;;;;2086300;28;19913;-72
2022/01/15 01:01:41;;;;;;;;;;;5.90;99.90;;;;;;2086732;28;20250;-72
2022/01/15 01:02:42;;;;;;;;;;;5.90;99.90;;;;;;2093064;28;20011;-72
2022/01/15 01:03:42;;;;;;;;;;;6.00;99.90;;;;;;2089280;28;19951;-72
2022/01/15 01:04:43;;;;;;;;;;;6.00;99.90;;;;;;2090091;28;19920;-72
2022/01/15 01:05:43;;;;;;;;;;;6.00;99.90;;;;;;2089985;28;19954;-72
2022/01/15 01:06:44;;;;;;;;;;;6.00;99.90;;;;;;2088625;28;19916;-72
2022/01/15 01:07:44;;;;;;;;;;;6.00;99.90;;;;;;2085472;28;19909;-72
2022/01/15 01:08:44;;;;;;;;;;;6.00;99.90;;;;;;2094196;28;19917;-72
2022/01/15 01:10:01;;;;;;;;;;;6.00;99.90;;;;;;2085228;28;20682;-72
2022/01/15 01:11:10;;;;;;;;;;;6.00;99.90;;;;;;2089835;28;19909;-72
2022/01/15 01:12:27;;;;;;;;;;;6.00;99.90;;;;;;2082193;28;20285;-72
2022/01/15 01:20:22;;;;;;;;;;;6.10;99.90;;;;;;2072421;28;19917;-72
2022/01/15 01:22:01;;;;;;;;;;;6.10;99.90;;;;;;2072297;28;20468;-72
2022/01/15 01:22:54;;;;;;;;;;;6.10;99.90;;;;;;2085699;28;19974;-72
2022/01/15 01:23:54;;;;;;;;;;;6.10;99.90;;;;;;2089763;28;20424;-72
2022/01/15 01:24:55;;;;;;;;;;;6.10;99.90;;;;;;2089922;28;20287;-72
2022/01/15 01:26:07;;;;;;;;;;;6.00;99.90;;;;;;2088751;28;19948;-72
2022/01/15 01:27:22;;;;;;;;;;;6.00;99.90;;;;;;2089418;28;19909;-72
2022/01/15 01:28:36;;;;;;;;;;;6.00;99.90;;;;;;2089338;28;19923;-72
2022/01/15 01:30:50;;;;;;;;;;;6.00;99.90;;;;;;2089748;28;19967;-72
2022/01/15 01:34:18;;;;;;;;;;;5.90;99.90;;;;;;2088724;28;20265;-72
2022/01/15 01:35:32;;;;;;;;;;;5.90;99.90;;;;;;2089036;28;19913;-72
2022/01/15 01:36:57;;;;;;;;;;;5.90;99.90;;;;;;2083901;28;19996;-72
2022/01/15 01:38:06;;;;;;;;;;;5.90;99.90;;;;;;2091464;28;19920;-72
2022/01/15 01:39:13;;;;;;;;;;;5.90;99.90;;;;;;2089322;28;19924;-72
2022/01/15 01:40:24;;;;;;;;;;;5.90;99.90;;;;;;2088946;28;20604;-72
2022/01/15 01:41:34;;;;;;;;;;;5.90;99.90;;;;;;2080821;28;19920;-72
2022/01/15 01:42:41;;;;;;;;;;;5.90;99.90;;;;;;2089019;28;19982;-72
2022/01/15 01:43:52;;;;;;;;;;;5.90;99.90;;;;;;2089218;28;20280;-72
2022/01/15 01:44:59;;;;;;;;;;;5.90;99.90;;;;;;2089877;28;19913;-72
2022/01/15 01:46:33;;;;;;;;;;;5.90;99.90;;;;;;2081568;28;19913;-71
2022/01/15 01:47:29;;;;;;;;;;;5.90;99.90;;;;;;2087810;28;19931;-72
2022/01/15 01:48:30;;;;;;;;;;;5.90;99.90;;;;;;2089665;28;19917;-72
2022/01/15 01:49:30;;;;;;;;;;;5.90;99.90;;;;;;2089901;28;19912;-72
2022/01/15 01:50:31;;;;;;;;;;;5.90;99.90;;;;;;2088914;28;19913;-71
2022/01/15 01:51:34;;;;;;;;;;;5.90;99.90;;;;;;2083913;28;19913;-72
2022/01/15 01:52:35;;;;;;;;;;;5.90;99.90;;;;;;2089444;28;20281;-72
2022/01/15 01:53:35;;;;;;;;;;;5.90;99.90;;;;;;2085327;28;19959;-72
2022/01/15 01:54:36;;;;;;;;;;;5.90;99.90;;;;;;2089314;28;19948;-72
2022/01/15 01:55:37;;;;;;;;;;;5.90;99.90;;;;;;2089567;28;19913;-72
2022/01/15 01:56:37;;;;;;;;;;;5.90;99.90;;;;;;2089187;28;19916;-72
2022/01/15 01:57:38;;;;;;;;;;;5.90;99.90;;;;;;2089312;28;19937;-72
2022/01/15 01:58:38;;;;;;;;;;;5.90;99.90;;;;;;2089594;28;19912;-72
2022/01/15 01:59:39;;;;;;;;;;;5.90;99.90;;;;;;2089444;28;20687;-72
2022/01/15 02:00:39;;;;;;;;;;;5.80;99.90;;;;;;2089891;28;19913;-72
2022/01/15 02:01:40;;;;;;;;;;;5.80;99.90;;;;;;2089608;28;19955;-72
2022/01/15 02:02:40;;;;;;;;;;;5.90;99.90;;;;;;2087918;28;20434;-72
2022/01/15 02:03:41;;;;;;;;;;;5.80;99.90;;;;;;2089219;28;19913;-72
2022/01/15 02:04:41;;;;;;;;;;;5.80;99.90;;;;;;2087975;28;20367;-72
2022/01/15 02:05:42;;;;;;;;;;;5.80;99.90;;;;;;2088730;28;19942;-72
2022/01/15 02:06:42;;;;;;;;;;;5.80;99.90;;;;;;2096114;28;20011;-72
2022/01/15 02:07:44;;;;;;;;;;;5.80;99.90;;;;;;2081036;28;19913;-72
2022/01/15 02:08:45;;;;;;;;;;;5.80;99.90;;;;;;2088130;28;19909;-72
2022/01/15 02:09:46;;;;;;;;;;;5.80;99.90;;;;;;2085183;28;20327;-72
2022/01/15 02:10:46;;;;;;;;;;;5.80;99.90;;;;;;2089419;28;19987;-72
2022/01/15 02:11:47;;;;;;;;;;;5.80;99.90;;;;;;2089328;28;20279;-72
2022/01/15 02:12:51;;;;;;;;;;;5.80;99.90;;;;;;2088966;28;19938;-72
2022/01/15 02:13:52;;;;;;;;;;;5.80;99.90;;;;;;2096584;28;19909;-72
2022/01/15 02:14:52;;;;;;;;;;;5.80;99.90;;;;;;2084174;28;19972;-72
2022/01/15 02:15:55;;;;;;;;;;;5.80;99.90;;;;;;2081375;28;19980;-72
2022/01/15 02:16:56;;;;;;;;;;;5.80;99.90;;;;;;2088942;28;19948;-72
2022/01/15 02:17:57;;;;;;;;;;;5.80;99.90;;;;;;2085480;28;20361;-72
2022/01/15 02:18:57;;;;;;;;;;;5.90;99.90;;;;;;2089796;28;20325;-72
2022/01/15 02:20:21;;;;;;;;;;;5.90;99.90;;;;;;2089327;28;19912;-72
2022/01/15 02:24:00;;;;;;;;;;;5.90;99.90;;;;;;2089554;28;19909;-72
2022/01/15 02:25:00;;;;;;;;;;;5.90;99.90;;;;;;2089568;28;19917;-72
2022/01/15 02:26:03;;;;;;;;;;;5.90;99.90;;;;;;2089111;28;19931;-72
2022/01/15 02:27:03;;;;;;;;;;;6.00;99.90;;;;;;2087704;28;19916;-72
2022/01/15 02:28:04;;;;;;;;;;;6.00;99.90;;;;;;2088398;28;20246;-72
2022/01/15 02:29:05;;;;;;;;;;;6.00;99.90;;;;;;2085987;28;20277;-72
2022/01/15 02:30:06;;;;;;;;;;;6.00;99.90;;;;;;2089155;28;20451;-72
2022/01/15 02:31:17;;;;;;;;;;;5.90;99.90;;;;;;2088206;28;20286;-72
2022/01/15 02:32:17;;;;;;;;;;;6.00;99.90;;;;;;2088197;28;19913;-72
2022/01/15 02:33:18;;;;;;;;;;;6.00;99.90;;;;;;2087120;28;19963;-72
2022/01/15 02:34:18;;;;;;;;;;;5.90;99.90;;;;;;2083377;28;19956;-72
2022/01/15 02:35:18;;;;;;;;;;;6.00;99.90;;;;;;2080586;28;19943;-72
2022/01/15 02:36:24;;;;;;;;;;;5.90;99.90;;;;;;2086200;28;19920;-72
2022/01/15 02:37:24;;;;;;;;;;;5.90;99.90;;;;;;2089245;28;19916;-72
2022/01/15 02:38:25;;;;;;;;;;;5.90;99.90;;;;;;2083619;28;19932;-72
2022/01/15 02:39:26;;;;;;;;;;;5.90;99.90;;;;;;2096969;28;19908;-72
2022/01/15 02:40:26;;;;;;;;;;;5.90;99.90;;;;;;2096738;28;19915;-72
2022/01/15 02:41:31;;;;;;;;;;;5.90;99.90;;;;;;2089616;28;20288;-72
2022/01/15 02:42:32;;;;;;;;;;;6.00;99.90;;;;;;2088730;28;19947;-72
2022/01/15 02:43:33;;;;;;;;;;;6.00;99.90;;;;;;2100239;28;19912;-72
2022/01/15 02:44:38;;;;;;;;;;;6.00;99.90;;;;;;2096324;28;19923;-72
2022/01/15 02:45:42;;;;;;;;;;;5.90;99.90;;;;;;2088329;28;19912;-72
2022/01/15 02:48:02;;;;;;;;;;;5.90;99.90;;;;;;2083403;28;19931;-72
2022/01/15 02:49:03;;;;;;;;;;;6.00;99.90;;;;;;2088586;28;19908;-72
2022/01/15 02:50:06;;;;;;;;;;;6.00;99.90;;;;;;2083395;28;20040;-72
2022/01/15 02:51:07;;;;;;;;;;;6.00;99.90;;;;;;2088418;28;20341;-72
2022/01/15 02:52:07;;;;;;;;;;;6.00;99.90;;;;;;2082654;28;20383;-71
2022/01/15 02:53:09;;;;;;;;;;;6.00;99.90;;;;;;2082687;28;19913;-72
2022/01/15 02:54:09;;;;;;;;;;;6.00;99.90;;;;;;2082205;28;19913;-72
2022/01/15 02:55:10;;;;;;;;;;;6.00;99.90;;;;;;2089079;28;20000;-72
2022/01/15 02:56:10;;;;;;;;;;;6.00;99.90;;;;;;2087708;28;19921;-72
2022/01/15 02:57:11;;;;;;;;;;;6.00;99.90;;;;;;2089307;28;20391;-72
2022/01/15 02:58:11;;;;;;;;;;;6.00;99.90;;;;;;2088674;28;19920;-72
2022/01/15 02:59:17;;;;;;;;;;;6.10;99.90;;;;;;2089226;28;19936;-72
2022/01/15 03:00:17;;;;;;;;;;;6.00;99.90;;;;;;2088448;28;19996;-72
2022/01/15 03:01:18;;;;;;;;;;;6.00;99.90;;;;;;2089025;28;20378;-72
2022/01/15 03:02:18;;;;;;;;;;;6.00;99.90;;;;;;2089116;28;19919;-72
2022/01/15 03:03:19;;;;;;;;;;;6.00;99.90;;;;;;2086571;28;19913;-72
2022/01/15 03:04:20;;;;;;;;;;;6.00;99.90;;;;;;2088908;28;20470;-72
2022/01/15 03:05:20;;;;;;;;;;;6.00;99.90;;;;;;2089354;28;19917;-72
2022/01/15 03:06:21;;;;;;;;;;;6.00;99.90;;;;;;2089205;28;19923;-72
2022/01/15 03:07:21;;;;;;;;;;;6.00;99.90;;;;;;2088841;28;19913;-72
2022/01/15 03:08:22;;;;;;;;;;;6.00;99.90;;;;;;2090469;28;19913;-72
2022/01/15 03:09:22;;;;;;;;;;;6.00;99.90;;;;;;2090530;28;19921;-72
2022/01/15 03:10:23;;;;;;;;;;;6.10;99.90;;;;;;2090670;28;19936;-72
2022/01/15 03:11:24;;;;;;;;;;;6.00;99.90;;;;;;2090432;28;19947;-72
2022/01/15 03:12:24;;;;;;;;;;;6.00;99.90;;;;;;2090501;28;19962;-72
2022/01/15 03:13:24;;;;;;;;;;;6.10;99.90;;;;;;2090482;28;19913;-72
2022/01/15 03:14:30;;;;;;;;;;;6.00;99.90;;;;;;2090555;28;19935;-72
2022/01/15 03:15:30;;;;;;;;;;;6.10;99.90;;;;;;2090693;28;19919;-71
2022/01/15 03:16:31;;;;;;;;;;;6.10;99.90;;;;;;2090474;28;19908;-72
2022/01/15 03:17:31;;;;;;;;;;;6.10;99.90;;;;;;2090676;28;19915;-72
2022/01/15 03:18:32;;;;;;;;;;;6.10;99.90;;;;;;2090611;28;19909;-72
2022/01/15 03:19:32;;;;;;;;;;;6.10;99.90;;;;;;2090571;28;19913;-72
2022/01/15 03:20:33;;;;;;;;;;;6.10;99.90;;;;;;2086333;28;19925;-72
2022/01/15 03:21:33;;;;;;;;;;;6.10;99.90;;;;;;2090442;28;20390;-72
2022/01/15 03:22:34;;;;;;;;;;;6.10;99.90;;;;;;2089992;28;20012;-72
2022/01/15 03:23:34;;;;;;;;;;;6.10;99.90;;;;;;2089107;28;20035;-72
2022/01/15 03:24:35;;;;;;;;;;;6.10;99.90;;;;;;2087907;28;19959;-72
2022/01/15 03:25:35;;;;;;;;;;;6.10;99.90;;;;;;2083404;28;20003;-72
2022/01/15 03:26:36;;;;;;;;;;;6.10;99.90;;;;;;2090501;28;20008;-72
2022/01/15 03:27:36;;;;;;;;;;;6.10;99.90;;;;;;2089602;28;19909;-72
2022/01/15 03:28:37;;;;;;;;;;;6.00;99.90;;;;;;2090589;28;19913;-72
2022/01/15 03:29:38;;;;;;;;;;;6.10;99.90;;;;;;2090340;28;20058;-72
2022/01/15 03:30:38;;;;;;;;;;;6.00;99.90;;;;;;2087386;28;20380;-72
2022/01/15 03:31:39;;;;;;;;;;;6.00;99.90;;;;;;2097814;28;19955;-72
2022/01/15 03:32:43;;;;;;;;;;;6.10;99.90;;;;;;2089440;28;19921;-72
2022/01/15 03:33:43;;;;;;;;;;;6.10;99.90;;;;;;2089123;28;19917;-72
2022/01/15 03:34:44;;;;;;;;;;;6.10;99.90;;;;;;2082277;28;19910;-72
2022/01/15 03:35:44;;;;;;;;;;;6.00;99.90;;;;;;2094298;28;19909;-72
2022/01/15 03:36:44;;;;;;;;;;;6.10;99.90;;;;;;2098104;28;19908;-72
2022/01/15 03:37:45;;;;;;;;;;;6.00;99.90;;;;;;2096121;28;19909;-72
2022/01/15 03:38:45;;;;;;;;;;;6.00;99.90;;;;;;2097946;28;19920;-72
2022/01/15 03:39:46;;;;;;;;;;;6.00;99.90;;;;;;2090273;28;19952;-72
2022/01/15 03:40:47;;;;;;;;;;;6.10;99.90;;;;;;2090296;28;20302;-72
2022/01/15 03:41:47;;;;;;;;;;;6.00;99.90;;;;;;2090256;28;19943;-72
2022/01/15 03:42:48;;;;;;;;;;;6.00;99.90;;;;;;2090345;28;19909;-72
2022/01/15 03:43:48;;;;;;;;;;;6.00;99.90;;;;;;2089996;28;19955;-72
2022/01/15 03:44:49;;;;;;;;;;;6.00;99.90;;;;;;2087658;28;19913;-72
2022/01/15 03:45:50;;;;;;;;;;;6.00;99.90;;;;;;2089708;28;19912;-72
2022/01/15 03:46:50;;;;;;;;;;;6.10;99.90;;;;;;2090252;28;19995;-71
2022/01/15 03:47:51;;;;;;;;;;;6.00;99.90;;;;;;2090233;28;20341;-71
2022/01/15 03:48:52;;;;;;;;;;;6.10;99.90;;;;;;2086796;28;19909;-72
2022/01/15 03:49:53;;;;;;;;;;;6.10;99.90;;;;;;2082665;28;19968;-72
2022/01/15 03:50:53;;;;;;;;;;;6.10;99.90;;;;;;2090199;28;19913;-72
2022/01/15 03:51:54;;;;;;;;;;;6.00;99.90;;;;;;2098040;28;19917;-72
2022/01/15 03:52:54;;;;;;;;;;;6.10;99.90;;;;;;2095548;28;19912;-72
2022/01/15 03:53:55;;;;;;;;;;;6.10;99.90;;;;;;2088370;28;20301;-72
2022/01/15 03:54:56;;;;;;;;;;;6.10;99.90;;;;;;2088398;28;19913;-72
2022/01/15 03:55:57;;;;;;;;;;;6.10;99.90;;;;;;2084135;28;19917;-72
2022/01/15 03:56:57;;;;;;;;;;;6.10;99.90;;;;;;2086940;28;19913;-72
2022/01/15 03:58:00;;;;;;;;;;;6.10;99.90;;;;;;2089458;28;19917;-71
2022/01/15 03:59:00;;;;;;;;;;;6.10;99.90;;;;;;2097140;28;19912;-72
2022/01/15 04:00:01;;;;;;;;;;;6.10;99.90;;;;;;2090495;28;19909;-72
2022/01/15 04:01:02;;;;;;;;;;;6.10;99.90;;;;;;2090299;28;20282;-71
2022/01/15 04:02:02;;;;;;;;;;;6.00;99.90;;;;;;2089374;28;19992;-72
2022/01/15 04:03:03;;;;;;;;;;;6.10;99.90;;;;;;2089309;28;19920;-72
2022/01/15 04:04:04;;;;;;;;;;;6.10;99.90;;;;;;2082472;28;19909;-72
2022/01/15 04:05:04;;;;;;;;;;;6.10;99.90;;;;;;2083659;28;20048;-72
2022/01/15 04:06:05;;;;;;;;;;;6.10;99.90;;;;;;2082943;28;19963;-71
2022/01/15 04:07:05;;;;;;;;;;;6.10;99.90;;;;;;2083901;28;19955;-72
2022/01/15 04:08:06;;;;;;;;;;;6.00;99.90;;;;;;2086279;28;19951;-72
2022/01/15 04:09:07;;;;;;;;;;;6.00;99.90;;;;;;2088630;28;19919;-72
2022/01/15 04:10:09;;;;;;;;;;;6.10;99.90;;;;;;2090306;28;19909;-72
2022/01/15 04:11:10;;;;;;;;;;;6.10;99.90;;;;;;2090238;28;19963;-72
2022/01/15 04:12:10;;;;;;;;;;;6.10;99.90;;;;;;2090283;28;19959;-72
2022/01/15 04:13:15;;;;;;;;;;;6.00;99.90;;;;;;2083938;28;20004;-72
2022/01/15 04:14:15;;;;;;;;;;;6.00;99.90;;;;;;2083089;28;19948;-72
2022/01/15 04:15:17;;;;;;;;;;;6.00;99.90;;;;;;2082978;28;19917;-72
2022/01/15 04:16:17;;;;;;;;;;;6.00;99.90;;;;;;2086274;28;20277;-72
2022/01/15 04:17:18;;;;;;;;;;;6.00;99.90;;;;;;2090012;28;19965;-72
2022/01/15 04:18:22;;;;;;;;;;;5.90;99.90;;;;;;2090359;28;19909;-72
2022/01/15 04:19:24;;;;;;;;;;;5.90;99.90;;;;;;2089131;28;20300;-72
2022/01/15 04:20:24;;;;;;;;;;;5.90;99.90;;;;;;2089540;28;19908;-72
2022/01/15 04:21:25;;;;;;;;;;;5.90;99.90;;;;;;2088511;28;19913;-72
2022/01/15 04:22:26;;;;;;;;;;;5.90;99.90;;;;;;2090120;28;19913;-72
2022/01/15 04:23:26;;;;;;;;;;;5.90;99.90;;;;;;2089421;28;20364;-72
2022/01/15 04:24:27;;;;;;;;;;;5.90;99.90;;;;;;2089446;28;19992;-72
2022/01/15 04:25:27;;;;;;;;;;;5.90;99.90;;;;;;2097174;28;19966;-72
2022/01/15 04:26:28;;;;;;;;;;;5.90;99.90;;;;;;2090111;28;20356;-72
2022/01/15 04:27:28;;;;;;;;;;;5.90;99.90;;;;;;2090093;28;20468;-72
2022/01/15 04:28:31;;;;;;;;;;;5.90;99.90;;;;;;2096426;28;19909;-72
2022/01/15 04:29:33;;;;;;;;;;;5.90;99.90;;;;;;2082041;28;19916;-72
2022/01/15 04:30:34;;;;;;;;;;;5.90;99.90;;;;;;2084893;28;19960;-72
2022/01/15 04:31:48;;;;;;;;;;;5.90;99.90;;;;;;2089927;28;19916;-72
2022/01/15 04:32:49;;;;;;;;;;;5.80;99.90;;;;;;2089642;28;19920;-72
2022/01/15 04:33:49;;;;;;;;;;;5.90;99.90;;;;;;2089877;28;20011;-72
2022/01/15 04:34:50;;;;;;;;;;;5.90;99.90;;;;;;2091835;28;20046;-72
2022/01/15 04:35:50;;;;;;;;;;;5.90;99.90;;;;;;2091667;28;19913;-72
2022/01/15 04:36:52;;;;;;;;;;;5.90;99.90;;;;;;2092019;28;19909;-72
2022/01/15 04:38:00;;;;;;;;;;;5.90;99.90;;;;;;2091486;28;19909;-72
2022/01/15 04:39:00;;;;;;;;;;;5.90;99.90;;;;;;2091890;28;19967;-72
2022/01/15 04:40:01;;;;;;;;;;;5.90;99.90;;;;;;2091024;28;19909;-72
2022/01/15 04:41:01;;;;;;;;;;;5.80;99.90;;;;;;2091857;28;20020;-72
2022/01/15 04:42:02;;;;;;;;;;;5.80;99.90;;;;;;2088564;28;19919;-72
2022/01/15 04:43:02;;;;;;;;;;;5.80;99.90;;;;;;2099334;28;19908;-72
2022/01/15 04:44:04;;;;;;;;;;;5.80;99.90;;;;;;2099115;28;19913;-72
2022/01/15 04:45:07;;;;;;;;;;;5.80;99.90;;;;;;2091390;28;20269;-72
2022/01/15 04:46:08;;;;;;;;;;;5.80;99.90;;;;;;2091798;28;19916;-72
2022/01/15 04:47:08;;;;;;;;;;;5.80;99.90;;;;;;2091654;28;19915;-72
2022/01/15 04:48:09;;;;;;;;;;;5.70;99.90;;;;;;2099171;28;19940;-72
2022/01/15 04:49:09;;;;;;;;;;;5.70;99.90;;;;;;2099516;28;19960;-72
2022/01/15 04:50:12;;;;;;;;;;;5.70;99.90;;;;;;2091559;28;20443;-72
2022/01/15 04:51:13;;;;;;;;;;;5.80;99.90;;;;;;2091482;28;19956;-72
2022/01/15 04:52:13;;;;;;;;;;;5.70;99.90;;;;;;2086141;28;19921;-72
2022/01/15 04:53:14;;;;;;;;;;;5.70;99.90;;;;;;2091338;28;19943;-72
2022/01/15 04:54:14;;;;;;;;;;;5.70;99.90;;;;;;2091304;28;19909;-72
2022/01/15 04:55:15;;;;;;;;;;;5.70;99.90;;;;;;2091577;28;19913;-72
2022/01/15 04:56:15;;;;;;;;;;;5.70;99.90;;;;;;2090705;28;19908;-72
2022/01/15 04:57:16;;;;;;;;;;;5.70;99.90;;;;;;2091426;28;19960;-72
2022/01/15 04:58:16;;;;;;;;;;;5.70;99.90;;;;;;2091190;28;20011;-72
2022/01/15 04:59:17;;;;;;;;;;;5.70;99.90;;;;;;2090594;28;19909;-72
2022/01/15 05:00:18;;;;;;;;;;;5.70;99.90;;;;;;2091167;28;19909;-72
2022/01/15 05:01:18;;;;;;;;;;;5.70;99.90;;;;;;2086928;28;19917;-72
2022/01/15 05:02:19;;;;;;;;;;;5.70;99.90;;;;;;2085186;28;19945;-72
2022/01/15 05:03:19;;;;;;;;;;;5.70;99.90;;;;;;2090031;28;19909;-72
2022/01/15 05:04:20;;;;;;;;;;;5.60;99.90;;;;;;2094456;28;19908;-72
2022/01/15 05:05:20;;;;;;;;;;;5.60;99.90;;;;;;2090927;28;19925;-72
2022/01/15 05:06:21;;;;;;;;;;;5.60;99.90;;;;;;2091599;28;20285;-72
2022/01/15 05:07:22;;;;;;;;;;;5.60;99.90;;;;;;2091494;28;20026;-72
2022/01/15 05:08:22;;;;;;;;;;;5.60;99.90;;;;;;2091547;28;19935;-72
2022/01/15 05:09:24;;;;;;;;;;;5.50;99.90;;;;;;2091329;28;19934;-72
2022/01/15 05:10:27;;;;;;;;;;;5.50;99.90;;;;;;2090291;28;19912;-72
2022/01/15 05:11:31;;;;;;;;;;;5.50;99.90;;;;;;2090491;28;19975;-72
2022/01/15 05:12:40;;;;;;;;;;;5.50;99.90;;;;;;2091226;28;19939;-72
2022/01/15 05:13:40;;;;;;;;;;;5.50;99.90;;;;;;2097407;28;19913;-72
2022/01/15 05:14:41;;;;;;;;;;;5.50;99.90;;;;;;2090216;28;19913;-72
2022/01/15 05:15:44;;;;;;;;;;;5.50;99.90;;;;;;2091274;28;20288;-72
2022/01/15 05:16:45;;;;;;;;;;;5.50;99.90;;;;;;2090753;28;19951;-72
2022/01/15 05:17:46;;;;;;;;;;;5.50;99.90;;;;;;2090570;28;19916;-72
2022/01/15 05:18:46;;;;;;;;;;;5.40;99.90;;;;;;2091539;28;19916;-72
2022/01/15 05:19:47;;;;;;;;;;;5.40;99.90;;;;;;2091268;28;19936;-72
2022/01/15 05:20:48;;;;;;;;;;;5.40;99.90;;;;;;2089242;28;20281;-72
2022/01/15 05:21:49;;;;;;;;;;;5.40;99.90;;;;;;2089101;28;19947;-72
2022/01/15 05:22:50;;;;;;;;;;;5.40;99.90;;;;;;2088875;28;19909;-72
2022/01/15 05:23:50;;;;;;;;;;;5.40;99.90;;;;;;2091053;28;19915;-72
2022/01/15 05:24:51;;;;;;;;;;;5.40;99.90;;;;;;2091049;28;19912;-72
2022/01/15 05:25:51;;;;;;;;;;;5.40;99.90;;;;;;2091282;28;19913;-72
2022/01/15 05:26:53;;;;;;;;;;;5.40;99.90;;;;;;2091202;28;19909;-72
2022/01/15 05:27:54;;;;;;;;;;;5.40;99.90;;;;;;2091267;28;20347;-72
2022/01/15 05:28:54;;;;;;;;;;;5.40;99.90;;;;;;2087734;28;19913;-72
2022/01/15 05:29:54;;;;;;;;;;;5.30;99.90;;;;;;2085605;28;19996;-72
2022/01/15 05:30:55;;;;;;;;;;;5.40;99.90;;;;;;2087394;28;19913;-72
2022/01/15 05:31:55;;;;;;;;;;;5.30;99.90;;;;;;2082966;28;19913;-72
2022/01/15 05:32:56;;;;;;;;;;;5.30;99.90;;;;;;2091469;28;20085;-72
2022/01/15 05:33:56;;;;;;;;;;;5.30;99.90;;;;;;2086811;28;19966;-72
2022/01/15 05:34:57;;;;;;;;;;;5.30;99.90;;;;;;2090599;28;20373;-72
2022/01/15 05:35:57;;;;;;;;;;;5.30;99.90;;;;;;2091053;28;19913;-72
2022/01/15 05:36:58;;;;;;;;;;;5.30;99.90;;;;;;2091206;28;19909;-71
2022/01/15 05:37:59;;;;;;;;;;;5.30;99.90;;;;;;2091438;28;20337;-72
2022/01/15 05:38:59;;;;;;;;;;;5.30;99.90;;;;;;2091190;28;20542;-72
2022/01/15 05:40:00;;;;;;;;;;;5.30;99.90;;;;;;2090197;28;20319;-72
2022/01/15 05:41:00;;;;;;;;;;;5.30;99.90;;;;;;2091080;28;20345;-72
2022/01/15 05:42:01;;;;;;;;;;;5.30;99.90;;;;;;2091278;28;19913;-72
2022/01/15 05:43:01;;;;;;;;;;;5.40;99.90;;;;;;2084882;28;19921;-72
2022/01/15 05:44:03;;;;;;;;;;;5.30;99.90;;;;;;2089190;28;19913;-72
2022/01/15 05:45:03;;;;;;;;;;;5.40;99.90;;;;;;2090578;28;20261;-72
2022/01/15 05:46:04;;;;;;;;;;;5.40;99.90;;;;;;2090483;28;19936;-72
2022/01/15 05:47:04;;;;;;;;;;;5.40;99.90;;;;;;2090360;28;20611;-72
2022/01/15 05:48:05;;;;;;;;;;;5.40;99.90;;;;;;2090690;28;19959;-72
2022/01/15 05:49:05;;;;;;;;;;;5.40;99.90;;;;;;2091019;28;19915;-72
2022/01/15 05:50:06;;;;;;;;;;;5.40;99.90;;;;;;2091120;28;19991;-72
2022/01/15 05:51:07;;;;;;;;;;;5.40;99.90;;;;;;2091055;28;19996;-72
2022/01/15 05:52:07;;;;;;;;;;;5.40;99.90;;;;;;2095917;28;19912;-72
2022/01/15 05:53:08;;;;;;;;;;;5.40;99.90;;;;;;2090286;28;19913;-72
2022/01/15 05:54:10;;;;;;;;;;;5.40;99.90;;;;;;2090390;28;20381;-72
2022/01/15 05:55:11;;;;;;;;;;;5.40;99.90;;;;;;2090863;28;19956;-72
2022/01/15 05:56:11;;;;;;;;;;;5.30;99.90;;;;;;2091232;28;20372;-72
2022/01/15 05:57:11;;;;;;;;;;;5.30;99.90;;;;;;2085358;28;20393;-72
2022/01/15 05:58:12;;;;;;;;;;;5.30;99.90;;;;;;2085653;28;19917;-72
2022/01/15 05:59:13;;;;;;;;;;;5.30;99.90;;;;;;2090580;28;19921;-72
2022/01/15 06:00:14;;;;;;;;;;;5.30;99.90;;;;;;2089539;28;19921;-72
2022/01/15 06:01:14;;;;;;;;;;;5.30;99.90;;;;;;2091316;28;19909;-72
2022/01/15 06:02:15;;;;;;;;;;;5.30;99.90;;;;;;2097159;28;19921;-71
2022/01/15 06:03:15;;;;;;;;;;;5.30;99.90;;;;;;2091010;28;19959;-72
2022/01/15 06:04:15;;;;;;;;;;;5.30;99.90;;;;;;2086701;28;19924;-72
2022/01/15 06:05:16;;;;;;;;;;;5.30;99.90;;;;;;2090818;28;20242;-72
2022/01/15 06:06:16;;;;;;;;;;;5.30;99.90;;;;;;2091259;28;20256;-72
2022/01/15 06:07:17;;;;;;;;;;;5.30;99.90;;;;;;2090943;28;20373;-72
2022/01/15 06:08:17;;;;;;;;;;;5.30;99.90;;;;;;2091135;28;19955;-72
2022/01/15 06:09:18;;;;;;;;;;;5.40;99.90;;;;;;2093677;28;19920;-72
2022/01/15 06:10:18;;;;;;;;;;;5.30;99.90;;;;;;2098654;28;20389;-72
2022/01/15 06:11:19;;;;;;;;;;;5.30;99.90;;;;;;2089516;28;19995;-72
2022/01/15 06:12:27;;;;;;;;;;;5.30;99.90;;;;;;2090374;28;20336;-72
2022/01/15 06:13:28;;;;;;;;;;;5.30;99.90;;;;;;2085508;28;19931;-72
2022/01/15 06:14:30;;;;;;;;;;;5.30;99.90;;;;;;2087483;28;19921;-73
2022/01/15 06:15:31;;;;;;;;;;;5.30;99.90;;;;;;2087853;28;19959;-72
2022/01/15 06:16:31;;;;;;;;;;;5.30;99.90;;;;;;2088476;28;20065;-72
2022/01/15 06:17:32;;;;;;;;;;;5.30;99.90;;;;;;2086289;28;19916;-72
2022/01/15 06:18:32;;;;;;;;;;;5.40;99.90;;;;;;2089997;28;19913;-72
2022/01/15 06:19:32;;;;;;;;;;;5.40;99.90;;;;;;2089883;28;19996;-72